Time;durP1;ratioP1;P1;durP2;ratioP2;P2;SDS_P1;SDS_P2;PMS_P1;PMS_P2;Temp;Humidity;BMP_temperature;BMP_pressure;BME280_temperature;BME280_humidity;BME280_pressure;Samples;Min_cycle;Max_cycle;Signal;HPM_P1;HPM_P2
2023/10/29 00:00:33;;;;;;;;;;;;;;;9.52;100.00;99198.23;131440;1297;22581;-83
2023/10/29 00:03:34;;;;;;;;;;;;;;;9.52;100.00;99194.58;131558;1296;25530;-82
2023/10/29 00:06:35;;;;;;;;;;;;;;;9.52;100.00;99191.23;131441;1295;22681;-83
2023/10/29 00:09:35;;;;;;;;;;;;;;;9.52;100.00;99195.30;131198;1298;22527;-81
2023/10/29 00:12:35;;;;;;;;;;;;;;;9.50;100.00;99192.98;131403;1294;22952;-82
2023/10/29 00:15:36;;;;;;;;;;;;;;;9.50;100.00;99194.70;131239;1288;23419;-82
2023/10/29 00:18:36;;;;;;;;;;;;;;;9.49;100.00;99198.83;131502;1297;26745;-80
2023/10/29 00:21:37;;;;;;;;;;;;;;;9.48;100.00;99199.67;131350;1298;22554;-81
2023/10/29 00:24:38;;;;;;;;;;;;;;;9.47;100.00;99204.19;131290;1296;22599;-83
2023/10/29 00:27:38;;;;;;;;;;;;;;;9.47;100.00;99203.86;131356;1295;22542;-81
2023/10/29 00:30:38;;;;;;;;;;;;;;;9.47;100.00;99208.39;131221;1294;25373;-81
2023/10/29 00:33:39;;;;;;;;;;;;;;;9.48;100.00;99209.53;131374;1288;22543;-82
2023/10/29 00:36:40;;;;;;;;;;;;;;;9.49;100.00;99212.80;131370;1285;24284;-83
2023/10/29 00:39:40;;;;;;;;;;;;;;;9.49;100.00;99215.22;131351;1297;24420;-83
2023/10/29 00:42:41;;;;;;;;;;;;;;;9.50;100.00;99212.95;131234;1291;22578;-81
2023/10/29 00:45:51;;;;;;;;;;;;;;;9.51;100.00;99214.10;131249;1298;22531;-80
2023/10/29 00:48:51;;;;;;;;;;;;;;;9.52;100.00;99212.73;131380;1294;23380;-83
2023/10/29 00:51:52;;;;;;;;;;;;;;;9.53;100.00;99214.88;131162;1297;25203;-82
2023/10/29 00:54:53;;;;;;;;;;;;;;;9.53;100.00;99213.84;131100;1289;24244;-85
2023/10/29 00:57:54;;;;;;;;;;;;;;;9.53;100.00;99214.81;131243;1294;22535;-81
2023/10/29 01:00:54;;;;;;;;;;;;;;;9.51;100.00;99214.42;131267;1289;22571;-82
2023/10/29 01:03:55;;;;;;;;;;;;;;;9.51;100.00;99216.42;131306;1288;23918;-81
2023/10/29 01:06:55;;;;;;;;;;;;;;;9.49;100.00;99216.47;131159;1294;23061;-82
2023/10/29 01:09:58;;;;;;;;;;;;;;;9.47;100.00;99218.16;131122;1293;22648;-82
2023/10/29 01:12:59;;;;;;;;;;;;;;;9.43;100.00;99220.47;131405;1297;22622;-80
2023/10/29 01:16:04;;;;;;;;;;;;;;;9.41;100.00;99222.89;131336;1299;24043;-82
2023/10/29 01:19:05;;;;;;;;;;;;;;;9.40;100.00;99224.21;131170;1297;22674;-81
2023/10/29 01:22:05;;;;;;;;;;;;;;;9.38;100.00;99222.14;131099;1294;22554;-80
2023/10/29 01:25:09;;;;;;;;;;;;;;;9.34;100.00;99218.39;131241;1290;22762;-81
2023/10/29 01:28:10;;;;;;;;;;;;;;;9.30;100.00;99216.96;131302;1297;25351;-80
2023/10/29 01:31:10;;;;;;;;;;;;;;;9.26;100.00;99212.88;131250;1298;23194;-82
2023/10/29 01:34:11;;;;;;;;;;;;;;;9.23;100.00;99211.36;131267;1298;22634;-81
2023/10/29 01:37:11;;;;;;;;;;;;;;;9.21;100.00;99211.13;131269;1297;26765;-81
2023/10/29 01:40:13;;;;;;;;;;;;;;;9.17;100.00;99211.16;131249;1297;23245;-81
2023/10/29 01:43:13;;;;;;;;;;;;;;;9.14;100.00;99211.95;131220;1298;22649;-82
2023/10/29 01:46:13;;;;;;;;;;;;;;;9.11;100.00;99202.91;131267;1294;22569;-83
2023/10/29 01:49:14;;;;;;;;;;;;;;;9.07;100.00;99196.48;131292;1297;22635;-82
2023/10/29 01:52:14;;;;;;;;;;;;;;;9.04;100.00;99198.44;131282;1297;25246;-82
2023/10/29 01:55:15;;;;;;;;;;;;;;;9.00;100.00;99198.41;131113;1291;22659;-80
2023/10/29 01:58:15;;;;;;;;;;;;;;;8.95;100.00;99196.11;131293;1298;23779;-82
2023/10/29 02:01:15;;;;;;;;;;;;;;;8.92;100.00;99194.75;131171;1291;25441;-82
2023/10/29 02:04:16;;;;;;;;;;;;;;;8.88;100.00;99190.94;131451;1288;23806;-82
2023/10/29 02:07:16;;;;;;;;;;;;;;;8.84;100.00;99192.30;131660;1297;22658;-82
2023/10/29 02:10:17;;;;;;;;;;;;;;;8.80;100.00;99197.35;131495;1294;22565;-82
2023/10/29 02:13:17;;;;;;;;;;;;;;;8.76;100.00;99195.17;131455;1297;22586;-80
2023/10/29 02:16:17;;;;;;;;;;;;;;;8.72;100.00;99199.87;131376;1297;22536;-81
2023/10/29 02:19:18;;;;;;;;;;;;;;;8.69;100.00;99195.61;131254;1291;23464;-82
2023/10/29 02:22:18;;;;;;;;;;;;;;;8.65;100.00;99199.95;131462;1288;22538;-81
2023/10/29 02:25:19;;;;;;;;;;;;;;;8.63;100.00;99200.40;131433;1298;22548;-84
2023/10/29 02:28:19;;;;;;;;;;;;;;;8.63;100.00;99198.05;131313;1298;23589;-82
2023/10/29 02:31:20;;;;;;;;;;;;;;;8.64;100.00;99196.72;131543;1298;22644;-81
2023/10/29 02:34:20;;;;;;;;;;;;;;;8.65;100.00;99194.20;131445;1298;22600;-82
2023/10/29 02:37:21;;;;;;;;;;;;;;;8.68;100.00;99195.27;131544;1297;23749;-82
2023/10/29 02:40:21;;;;;;;;;;;;;;;8.71;100.00;99199.44;131358;1300;23333;-82
2023/10/29 02:43:22;;;;;;;;;;;;;;;8.75;100.00;99201.66;131219;1297;22564;-82
2023/10/29 02:46:22;;;;;;;;;;;;;;;8.77;100.00;99202.27;131197;1298;22579;-85
2023/10/29 02:49:22;;;;;;;;;;;;;;;8.79;100.00;99205.23;131189;1288;25385;-83
2023/10/29 02:52:24;;;;;;;;;;;;;;;8.82;100.00;99212.98;131433;1297;22771;-83
2023/10/29 02:55:25;;;;;;;;;;;;;;;8.85;100.00;99211.31;131087;1298;22573;-80
2023/10/29 02:58:25;;;;;;;;;;;;;;;8.87;100.00;99211.91;131179;1285;22572;-81
2023/10/29 03:01:26;;;;;;;;;;;;;;;8.89;100.00;99208.70;131169;1298;22602;-83
2023/10/29 03:04:26;;;;;;;;;;;;;;;8.90;100.00;99214.46;131039;1294;26551;-81
2023/10/29 03:07:26;;;;;;;;;;;;;;;8.93;100.00;99216.83;131140;1295;22629;-83
2023/10/29 03:10:27;;;;;;;;;;;;;;;8.95;100.00;99218.70;131233;1299;22653;-83
2023/10/29 03:13:28;;;;;;;;;;;;;;;8.97;100.00;99217.98;131204;1289;22538;-82
2023/10/29 03:16:29;;;;;;;;;;;;;;;8.98;100.00;99217.86;131330;1292;22522;-81
2023/10/29 03:19:29;;;;;;;;;;;;;;;9.00;100.00;99219.21;131177;1294;22600;-80
2023/10/29 03:22:29;;;;;;;;;;;;;;;9.01;100.00;99215.21;131165;1296;22599;-81
2023/10/29 03:25:30;;;;;;;;;;;;;;;9.02;100.00;99220.20;131426;1298;25351;-82
2023/10/29 03:28:30;;;;;;;;;;;;;;;9.02;100.00;99216.00;131117;1298;22994;-81
2023/10/29 03:31:31;;;;;;;;;;;;;;;9.04;100.00;99221.93;131221;1296;22592;-81
2023/10/29 03:34:32;;;;;;;;;;;;;;;9.05;100.00;99218.27;131022;1299;23285;-82
2023/10/29 03:37:32;;;;;;;;;;;;;;;9.06;100.00;99218.70;131225;1289;22669;-81
2023/10/29 03:40:33;;;;;;;;;;;;;;;9.07;100.00;99210.95;131201;1289;23152;-82
2023/10/29 03:43:33;;;;;;;;;;;;;;;9.08;100.00;99212.06;131244;1298;22589;-82
2023/10/29 03:46:34;;;;;;;;;;;;;;;9.07;100.00;99211.33;131260;1289;25316;-83
2023/10/29 03:49:34;;;;;;;;;;;;;;;9.08;100.00;99211.53;131512;1297;25280;-81
2023/10/29 03:52:34;;;;;;;;;;;;;;;9.09;100.00;99201.38;131296;1298;22526;-82
2023/10/29 03:55:36;;;;;;;;;;;;;;;9.11;100.00;99201.17;131526;1297;22549;-84
2023/10/29 03:58:37;;;;;;;;;;;;;;;9.13;100.00;99191.79;131598;1298;22853;-83
2023/10/29 04:01:37;;;;;;;;;;;;;;;9.14;100.00;99192.33;131503;1301;24491;-82
2023/10/29 04:04:37;;;;;;;;;;;;;;;9.16;100.00;99192.08;131470;1294;25246;-81
2023/10/29 04:07:38;;;;;;;;;;;;;;;9.16;100.00;99183.84;131212;1297;22586;-82
2023/10/29 04:10:39;;;;;;;;;;;;;;;9.14;100.00;99176.82;131585;1288;22616;-82
2023/10/29 04:13:39;;;;;;;;;;;;;;;9.12;100.00;99172.98;131278;1291;22548;-84
2023/10/29 04:16:40;;;;;;;;;;;;;;;9.10;100.00;99179.23;131345;1293;22579;-82
2023/10/29 04:19:40;;;;;;;;;;;;;;;9.08;100.00;99187.57;131473;1298;23890;-81
2023/10/29 04:22:42;;;;;;;;;;;;;;;9.06;100.00;99185.39;131420;1297;24069;-82
2023/10/29 04:25:44;;;;;;;;;;;;;;;9.02;100.00;99187.45;131427;1298;22534;-84
2023/10/29 04:28:45;;;;;;;;;;;;;;;8.96;100.00;99184.35;131025;1301;22690;-81
2023/10/29 04:31:45;;;;;;;;;;;;;;;8.92;100.00;99185.70;131215;1297;23200;-82
2023/10/29 04:34:46;;;;;;;;;;;;;;;8.88;100.00;99189.72;131316;1297;22534;-83
2023/10/29 04:37:46;;;;;;;;;;;;;;;8.83;100.00;99189.20;131298;1289;25448;-82
2023/10/29 04:40:46;;;;;;;;;;;;;;;8.73;99.88;99186.01;131284;1297;22544;-83
2023/10/29 04:43:47;;;;;;;;;;;;;;;8.62;99.94;99186.32;131505;1298;22576;-81
2023/10/29 04:46:48;;;;;;;;;;;;;;;8.55;100.00;99191.59;131371;1298;22662;-82
2023/10/29 04:49:48;;;;;;;;;;;;;;;8.47;100.00;99194.22;131243;1297;26552;-80
2023/10/29 04:52:48;;;;;;;;;;;;;;;8.42;100.00;99194.36;131488;1298;25359;-82
2023/10/29 04:55:49;;;;;;;;;;;;;;;8.38;100.00;99197.73;131343;1298;22559;-82
2023/10/29 04:58:49;;;;;;;;;;;;;;;8.36;100.00;99202.79;131328;1298;23771;-81
2023/10/29 05:01:50;;;;;;;;;;;;;;;8.32;99.99;99204.77;131297;1298;23704;-80
2023/10/29 05:04:51;;;;;;;;;;;;;;;8.29;100.00;99211.25;131164;1295;22656;-82
2023/10/29 05:07:51;;;;;;;;;;;;;;;8.24;99.97;99222.58;131116;1298;22580;-82
2023/10/29 05:10:52;;;;;;;;;;;;;;;8.15;99.96;99218.89;131132;1298;25332;-81
2023/10/29 05:13:52;;;;;;;;;;;;;;;8.08;100.00;99223.80;131088;1296;22551;-80
2023/10/29 05:16:53;;;;;;;;;;;;;;;8.00;99.97;99218.37;131236;1298;22546;-81
2023/10/29 05:19:54;;;;;;;;;;;;;;;7.94;100.00;99213.45;131144;1297;22577;-82
2023/10/29 05:22:55;;;;;;;;;;;;;;;7.93;100.00;99209.69;131064;1298;22576;-83
2023/10/29 05:25:56;;;;;;;;;;;;;;;7.93;100.00;99205.01;131115;1295;24290;-81
2023/10/29 05:28:56;;;;;;;;;;;;;;;7.91;100.00;99194.64;131137;1297;22588;-83
2023/10/29 05:31:56;;;;;;;;;;;;;;;7.92;100.00;99188.52;131248;1296;22645;-82
2023/10/29 05:34:57;;;;;;;;;;;;;;;7.94;100.00;99186.30;131179;1299;22538;-81
2023/10/29 05:37:57;;;;;;;;;;;;;;;7.97;100.00;99182.70;131175;1298;23291;-81
2023/10/29 05:40:58;;;;;;;;;;;;;;;8.00;100.00;99176.80;131188;1296;23137;-81
2023/10/29 05:43:58;;;;;;;;;;;;;;;8.04;100.00;99177.96;131059;1298;169107;-81
2023/10/29 05:46:59;;;;;;;;;;;;;;;8.09;100.00;99173.35;131446;1301;22684;-81
2023/10/29 05:50:00;;;;;;;;;;;;;;;8.15;100.00;99168.16;131336;1292;23046;-81
2023/10/29 05:53:00;;;;;;;;;;;;;;;8.20;100.00;99165.73;131411;1298;25250;-83
2023/10/29 05:56:01;;;;;;;;;;;;;;;8.24;100.00;99158.56;131401;1298;22516;-80
2023/10/29 05:59:01;;;;;;;;;;;;;;;8.30;100.00;99156.84;131159;1297;22613;-82
2023/10/29 06:02:01;;;;;;;;;;;;;;;8.36;100.00;99153.77;131487;1298;22583;-80
2023/10/29 06:05:02;;;;;;;;;;;;;;;8.42;100.00;99152.55;131408;1294;22544;-80
2023/10/29 06:08:05;;;;;;;;;;;;;;;8.47;100.00;99150.66;131299;1298;25346;-80
2023/10/29 06:11:05;;;;;;;;;;;;;;;8.52;100.00;99153.50;131300;1289;25398;-79
2023/10/29 06:14:06;;;;;;;;;;;;;;;8.56;100.00;99155.69;131486;1298;22606;-79
2023/10/29 06:17:06;;;;;;;;;;;;;;;8.61;100.00;99160.21;131547;1295;22535;-80
2023/10/29 06:20:11;;;;;;;;;;;;;;;8.67;100.00;99164.51;131363;1294;22568;-80
2023/10/29 06:23:11;;;;;;;;;;;;;;;8.73;100.00;99173.48;131528;1288;22545;-80
2023/10/29 06:26:12;;;;;;;;;;;;;;;8.81;100.00;99179.63;131496;1298;22567;-80
2023/10/29 06:29:12;;;;;;;;;;;;;;;8.86;100.00;99179.55;131371;1293;22613;-79
2023/10/29 06:32:13;;;;;;;;;;;;;;;8.90;100.00;99173.07;131449;1298;22569;-81
2023/10/29 06:35:14;;;;;;;;;;;;;;;8.95;100.00;99172.95;131465;1289;23940;-80
2023/10/29 06:38:14;;;;;;;;;;;;;;;9.01;100.00;99180.86;131387;1297;22534;-80
2023/10/29 06:41:14;;;;;;;;;;;;;;;9.06;100.00;99187.52;131511;1289;23903;-80
2023/10/29 06:44:15;;;;;;;;;;;;;;;9.12;100.00;99179.75;131440;1292;22753;-81
2023/10/29 06:47:15;;;;;;;;;;;;;;;9.19;100.00;99182.52;131587;1293;23578;-80
2023/10/29 06:50:16;;;;;;;;;;;;;;;9.29;100.00;99182.83;131622;1296;22999;-80
2023/10/29 06:53:16;;;;;;;;;;;;;;;9.40;100.00;99179.39;131832;1288;27436;-80
2023/10/29 06:56:16;;;;;;;;;;;;;;;9.54;100.00;99176.70;131499;1291;22653;-81
2023/10/29 06:59:18;;;;;;;;;;;;;;;9.61;100.00;99173.94;131588;1301;22548;-83
2023/10/29 07:02:19;;;;;;;;;;;;;;;9.66;100.00;99178.91;131462;1295;22541;-80
2023/10/29 07:05:20;;;;;;;;;;;;;;;9.66;100.00;99181.96;131205;1289;22979;-79
2023/10/29 07:08:21;;;;;;;;;;;;;;;9.65;100.00;99187.90;131294;1297;23264;-80
2023/10/29 07:11:21;;;;;;;;;;;;;;;9.65;99.81;99192.49;131401;1295;23359;-80
2023/10/29 07:14:22;;;;;;;;;;;;;;;9.63;99.72;99195.83;131520;1298;22560;-80
2023/10/29 07:17:22;;;;;;;;;;;;;;;9.63;99.49;99195.17;131278;1291;22531;-81
2023/10/29 07:20:22;;;;;;;;;;;;;;;9.64;99.19;99197.21;131466;1289;22787;-81
2023/10/29 07:23:23;;;;;;;;;;;;;;;9.66;99.22;99200.13;131420;1292;25370;-80
2023/10/29 07:26:24;;;;;;;;;;;;;;;9.74;99.39;99198.98;131638;1288;23391;-80
2023/10/29 07:29:24;;;;;;;;;;;;;;;9.85;99.36;99194.31;131548;1289;24281;-80
2023/10/29 07:32:25;;;;;;;;;;;;;;;10.00;99.43;99201.69;131584;1294;22596;-80
2023/10/29 07:35:25;;;;;;;;;;;;;;;10.19;98.63;99199.41;131545;1291;22588;-80
2023/10/29 07:38:26;;;;;;;;;;;;;;;10.46;97.86;99207.13;131383;1299;22561;-81
2023/10/29 07:41:26;;;;;;;;;;;;;;;10.67;97.44;99207.98;131460;1291;22685;-81
2023/10/29 07:44:27;;;;;;;;;;;;;;;10.84;96.11;99200.71;131625;1290;22577;-81
2023/10/29 07:47:27;;;;;;;;;;;;;;;10.93;95.32;99196.71;131469;1297;22645;-80
2023/10/29 07:50:28;;;;;;;;;;;;;;;11.17;95.21;99198.80;131614;1288;22641;-81
2023/10/29 07:53:30;;;;;;;;;;;;;;;11.48;95.06;99203.60;131683;1288;22563;-79
2023/10/29 07:56:31;;;;;;;;;;;;;;;11.63;95.10;99199.49;131665;1298;22686;-80
2023/10/29 07:59:33;;;;;;;;;;;;;;;11.97;94.51;99189.58;131693;1291;22665;-82
2023/10/29 08:02:34;;;;;;;;;;;;;;;12.29;94.23;99191.58;131335;1300;24196;-84
2023/10/29 08:05:34;;;;;;;;;;;;;;;12.57;92.76;99197.41;131407;1291;22627;-80
2023/10/29 08:08:34;;;;;;;;;;;;;;;12.68;90.63;99201.89;131541;1293;22536;-80
2023/10/29 08:11:37;;;;;;;;;;;;;;;12.72;88.92;99198.59;131562;1288;22635;-81
2023/10/29 08:14:38;;;;;;;;;;;;;;;12.73;88.53;99197.69;131165;1297;23213;-83
2023/10/29 08:17:39;;;;;;;;;;;;;;;12.85;88.17;99195.40;131037;1298;24249;-80
2023/10/29 08:20:40;;;;;;;;;;;;;;;12.93;87.13;99188.73;131367;1292;22548;-80
2023/10/29 08:23:41;;;;;;;;;;;;;;;13.02;86.06;99183.04;131421;1291;24071;-81
2023/10/29 08:26:41;;;;;;;;;;;;;;;13.19;86.14;99187.02;131198;1297;22697;-80
2023/10/29 08:29:43;;;;;;;;;;;;;;;13.48;87.00;99176.86;131527;1298;25303;-80
2023/10/29 08:32:43;;;;;;;;;;;;;;;13.72;86.35;99174.02;131225;1293;22572;-80
2023/10/29 08:35:44;;;;;;;;;;;;;;;13.96;84.64;99172.08;131366;1288;22548;-81
2023/10/29 08:38:44;;;;;;;;;;;;;;;14.25;84.91;99168.98;131424;1290;23882;-81
2023/10/29 08:41:45;;;;;;;;;;;;;;;14.55;83.52;99165.70;131594;1289;23293;-85
2023/10/29 08:44:45;;;;;;;;;;;;;;;14.68;83.01;99176.60;131416;1291;22688;-79
2023/10/29 08:47:46;;;;;;;;;;;;;;;14.92;81.19;99178.09;131569;1291;22716;-80
2023/10/29 08:50:46;;;;;;;;;;;;;;;14.94;80.13;99182.80;131381;1291;23295;-80
2023/10/29 08:53:46;;;;;;;;;;;;;;;15.02;78.14;99182.28;131724;1298;22568;-80
2023/10/29 08:56:47;;;;;;;;;;;;;;;15.08;76.55;99179.86;131766;1297;22766;-80
2023/10/29 08:59:47;;;;;;;;;;;;;;;15.26;76.96;99174.33;131623;1297;25452;-80
2023/10/29 09:02:48;;;;;;;;;;;;;;;15.49;76.03;99170.30;131343;1288;25470;-79
2023/10/29 09:05:48;;;;;;;;;;;;;;;15.71;75.32;99168.63;131413;1297;24392;-80
2023/10/29 09:08:49;;;;;;;;;;;;;;;15.89;74.37;99161.86;131572;1295;24288;-80
2023/10/29 09:11:53;;;;;;;;;;;;;;;15.78;72.03;99157.30;131382;1291;24498;-80
2023/10/29 09:14:54;;;;;;;;;;;;;;;15.75;71.23;99152.65;131198;1288;22546;-79
2023/10/29 09:17:54;;;;;;;;;;;;;;;15.82;72.46;99156.39;131404;1288;23424;-80
2023/10/29 09:20:54;;;;;;;;;;;;;;;15.90;69.94;99159.50;131300;1288;23930;-82
2023/10/29 09:23:55;;;;;;;;;;;;;;;15.94;69.55;99163.24;131708;1294;25539;-80
2023/10/29 09:26:56;;;;;;;;;;;;;;;16.03;70.87;99166.13;131471;1294;22937;-80
2023/10/29 09:29:57;;;;;;;;;;;;;;;16.16;69.40;99166.50;131376;1294;22545;-79
2023/10/29 09:32:58;;;;;;;;;;;;;;;16.16;69.22;99170.16;131487;1297;22582;-80
2023/10/29 09:36:00;;;;;;;;;;;;;;;15.91;68.59;99170.32;131243;1291;22625;-80
2023/10/29 09:39:00;;;;;;;;;;;;;;;15.53;68.00;99170.72;131598;1297;22533;-80
2023/10/29 09:42:08;;;;;;;;;;;;;;;15.10;68.33;99162.33;131554;1294;22628;-81
2023/10/29 09:45:09;;;;;;;;;;;;;;;14.81;69.74;99164.46;131469;1291;25246;-81
2023/10/29 09:48:10;;;;;;;;;;;;;;;14.88;70.30;99161.95;131433;1288;22576;-80
2023/10/29 09:51:11;;;;;;;;;;;;;;;14.94;70.23;99157.13;131320;1296;22527;-81
2023/10/29 09:54:12;;;;;;;;;;;;;;;15.05;71.33;99159.30;131431;1289;24508;-80
2023/10/29 09:57:12;;;;;;;;;;;;;;;15.12;71.11;99159.77;131401;1297;23942;-81
2023/10/29 10:00:15;;;;;;;;;;;;;;;15.05;71.08;99159.16;131364;1297;22670;-81
2023/10/29 10:03:16;;;;;;;;;;;;;;;14.92;71.05;99149.42;131445;1288;22667;-80
2023/10/29 10:06:16;;;;;;;;;;;;;;;14.77;71.61;99144.03;131403;1294;24698;-80
2023/10/29 10:09:17;;;;;;;;;;;;;;;14.64;71.89;99136.46;131540;1297;24265;-80
2023/10/29 10:12:17;;;;;;;;;;;;;;;14.54;71.76;99136.05;131499;1291;22562;-81
2023/10/29 10:15:19;;;;;;;;;;;;;;;14.45;71.77;99136.89;131525;1297;22572;-80
2023/10/29 10:18:20;;;;;;;;;;;;;;;14.42;72.51;99130.84;131490;1291;22670;-80
2023/10/29 10:21:23;;;;;;;;;;;;;;;14.43;72.36;99129.42;131629;1294;22566;-81
2023/10/29 10:24:34;;;;;;;;;;;;;;;14.45;72.52;99124.48;131380;1294;22556;-80
2023/10/29 10:27:48;;;;;;;;;;;;;;;14.48;72.52;99112.85;131385;1288;22663;-80
2023/10/29 10:30:50;;;;;;;;;;;;;;;14.67;72.87;99108.95;131420;1297;26602;-81
2023/10/29 10:33:50;;;;;;;;;;;;;;;14.81;72.91;99106.83;131438;1297;24936;-80
2023/10/29 10:36:57;;;;;;;;;;;;;;;15.00;72.59;99106.41;131496;1297;22565;-80
2023/10/29 10:39:58;;;;;;;;;;;;;;;15.19;72.07;99102.64;131244;1289;22664;-80
2023/10/29 10:42:58;;;;;;;;;;;;;;;15.20;70.72;99102.22;131161;1297;22655;-81
2023/10/29 10:46:01;;;;;;;;;;;;;;;15.16;71.60;99101.07;131210;1288;22658;-80
2023/10/29 10:49:04;;;;;;;;;;;;;;;15.12;70.84;99100.20;131016;1291;22723;-81
2023/10/29 10:52:05;;;;;;;;;;;;;;;15.11;71.46;99094.55;131143;1294;22677;-80
2023/10/29 10:55:06;;;;;;;;;;;;;;;15.11;71.24;99095.45;131708;1291;23412;-81
2023/10/29 10:58:06;;;;;;;;;;;;;;;15.16;71.66;99093.59;131350;1297;22571;-81
2023/10/29 11:01:08;;;;;;;;;;;;;;;15.37;70.65;99091.48;131045;1291;22563;-81
2023/10/29 11:04:09;;;;;;;;;;;;;;;15.72;71.25;99089.18;131276;1291;22607;-81
2023/10/29 11:07:10;;;;;;;;;;;;;;;16.13;69.63;99086.34;131609;1289;22620;-81
2023/10/29 11:10:14;;;;;;;;;;;;;;;16.25;69.18;99077.43;131732;1294;26105;-81
2023/10/29 11:13:21;;;;;;;;;;;;;;;16.35;68.81;99080.83;131398;1298;24256;-81
2023/10/29 11:16:23;;;;;;;;;;;;;;;16.42;68.19;99077.21;131393;1297;22568;-80
2023/10/29 11:19:33;;;;;;;;;;;;;;;16.32;67.82;99075.94;131116;1290;25513;-81
2023/10/29 11:22:46;;;;;;;;;;;;;;;16.17;68.34;99069.77;131307;1290;23282;-81
2023/10/29 11:25:47;;;;;;;;;;;;;;;16.02;67.79;99070.85;131147;1298;25300;-80
2023/10/29 11:28:48;;;;;;;;;;;;;;;15.93;68.36;99065.59;131246;1291;22787;-81
2023/10/29 11:32:08;;;;;;;;;;;;;;;15.93;69.16;99059.33;131052;1291;22711;-81
2023/10/29 11:35:19;;;;;;;;;;;;;;;15.99;68.91;99061.89;131305;1297;22659;-81
2023/10/29 11:38:37;;;;;;;;;;;;;;;15.97;69.28;99049.48;131499;1297;24276;-81
2023/10/29 11:41:39;;;;;;;;;;;;;;;15.97;69.14;99053.16;131394;1298;22599;-81
2023/10/29 11:44:40;;;;;;;;;;;;;;;16.01;69.89;99050.70;131365;1294;22563;-81
2023/10/29 11:47:59;;;;;;;;;;;;;;;16.16;70.42;99049.91;131427;1297;24296;-81
2023/10/29 11:51:03;;;;;;;;;;;;;;;16.19;69.50;99042.70;131414;1294;25549;-81
2023/10/29 11:54:03;;;;;;;;;;;;;;;16.16;69.43;99041.75;131531;1297;22572;-81
2023/10/29 11:57:07;;;;;;;;;;;;;;;16.15;69.22;99037.40;131478;1294;23403;-80
2023/10/29 12:00:08;;;;;;;;;;;;;;;16.13;69.69;99038.34;131394;1294;24286;-81
2023/10/29 12:03:09;;;;;;;;;;;;;;;16.08;69.94;99042.89;131438;1293;25316;-81
2023/10/29 12:06:09;;;;;;;;;;;;;;;15.98;70.04;99043.13;131397;1291;25078;-80
2023/10/29 12:09:13;;;;;;;;;;;;;;;15.88;70.75;99034.34;131463;1289;23415;-80
2023/10/29 12:12:14;;;;;;;;;;;;;;;15.80;71.22;99036.77;131365;1294;22596;-81
2023/10/29 12:15:16;;;;;;;;;;;;;;;15.75;71.78;99044.44;131193;1290;22554;-80
2023/10/29 12:18:20;;;;;;;;;;;;;;;15.71;72.15;99040.88;131383;1293;25505;-81
2023/10/29 12:21:20;;;;;;;;;;;;;;;15.70;72.58;99034.41;131523;1297;22539;-81
2023/10/29 12:24:21;;;;;;;;;;;;;;;15.69;72.75;99039.86;131381;1297;22584;-81
2023/10/29 12:27:22;;;;;;;;;;;;;;;15.73;73.41;99035.88;131327;1298;22551;-81
2023/10/29 12:30:32;;;;;;;;;;;;;;;15.79;73.11;99044.23;131501;1297;22549;-81
2023/10/29 12:33:34;;;;;;;;;;;;;;;15.87;73.26;99041.98;132031;1297;22606;-81
2023/10/29 12:36:34;;;;;;;;;;;;;;;15.95;72.98;99030.49;131349;1297;23329;-81
2023/10/29 12:39:37;;;;;;;;;;;;;;;16.01;72.36;99025.19;131433;1298;22690;-80
2023/10/29 12:42:51;;;;;;;;;;;;;;;16.05;71.91;99026.27;131351;1292;23883;-81
2023/10/29 12:45:59;;;;;;;;;;;;;;;16.07;71.87;99027.27;131646;1297;22669;-80
2023/10/29 12:49:07;;;;;;;;;;;;;;;16.09;71.97;99026.45;131282;1291;23072;-80
2023/10/29 12:52:12;;;;;;;;;;;;;;;16.11;72.00;99028.69;131191;1297;22624;-81
2023/10/29 12:55:12;;;;;;;;;;;;;;;16.14;71.90;99028.66;131378;1290;22564;-80
2023/10/29 12:58:12;;;;;;;;;;;;;;;16.11;71.54;99023.35;131375;1298;25246;-81
2023/10/29 13:01:13;;;;;;;;;;;;;;;16.07;71.62;99026.66;131344;1297;23132;-81
2023/10/29 13:04:14;;;;;;;;;;;;;;;16.05;71.79;99035.16;131553;1298;22635;-81
2023/10/29 13:07:17;;;;;;;;;;;;;;;16.09;72.41;99041.82;131419;1298;24270;-81
2023/10/29 13:10:17;;;;;;;;;;;;;;;16.18;71.94;99038.27;131525;1297;22762;-81
2023/10/29 13:13:18;;;;;;;;;;;;;;;16.19;71.86;99038.09;131386;1289;25515;-80
2023/10/29 13:16:19;;;;;;;;;;;;;;;16.17;71.82;99043.05;131316;1290;24311;-83
2023/10/29 13:19:20;;;;;;;;;;;;;;;16.13;71.83;99045.33;131231;1291;22562;-80
2023/10/29 13:22:21;;;;;;;;;;;;;;;16.18;72.44;99045.14;131281;1292;24369;-79
2023/10/29 13:25:22;;;;;;;;;;;;;;;16.24;72.15;99033.92;131184;1298;26558;-79
2023/10/29 13:28:26;;;;;;;;;;;;;;;16.31;72.41;99020.23;131237;1291;22536;-79
2023/10/29 13:31:27;;;;;;;;;;;;;;;16.33;71.70;99020.15;131261;1282;22514;-80
2023/10/29 13:34:28;;;;;;;;;;;;;;;16.37;72.11;99010.86;131142;1299;24296;-80
2023/10/29 13:37:30;;;;;;;;;;;;;;;16.41;72.13;99008.33;131232;1294;26528;-80
2023/10/29 13:40:30;;;;;;;;;;;;;;;16.35;71.82;99015.63;131179;1290;25567;-79
2023/10/29 13:43:30;;;;;;;;;;;;;;;16.23;71.78;99012.55;131255;1293;22714;-79
2023/10/29 13:46:31;;;;;;;;;;;;;;;16.11;72.27;99007.65;131188;1295;22546;-80
2023/10/29 13:49:31;;;;;;;;;;;;;;;16.01;72.28;99008.84;131061;1285;22543;-79
2023/10/29 13:52:32;;;;;;;;;;;;;;;15.94;72.20;99006.31;130979;1298;22549;-80
2023/10/29 13:55:32;;;;;;;;;;;;;;;15.92;72.24;99009.10;131365;1297;22639;-80
2023/10/29 13:58:33;;;;;;;;;;;;;;;15.93;72.62;99008.02;131275;1294;23271;-80
2023/10/29 14:01:33;;;;;;;;;;;;;;;15.96;72.77;99005.35;131177;1293;23044;-81
2023/10/29 14:04:34;;;;;;;;;;;;;;;16.03;73.02;99000.88;131140;1291;22590;-84
2023/10/29 14:07:34;;;;;;;;;;;;;;;16.10;73.02;98997.52;131254;1292;24808;-81
2023/10/29 14:10:34;;;;;;;;;;;;;;;16.09;72.49;98991.55;131016;1292;22556;-81
2023/10/29 14:13:35;;;;;;;;;;;;;;;16.02;72.85;98988.16;131308;1294;22568;-81
2023/10/29 14:16:39;;;;;;;;;;;;;;;15.93;72.69;98980.02;131230;1294;22553;-81
2023/10/29 14:19:40;;;;;;;;;;;;;;;15.83;72.89;98976.35;131437;1291;22590;-80
2023/10/29 14:22:41;;;;;;;;;;;;;;;15.72;73.17;98982.23;131381;1290;22757;-80
2023/10/29 14:25:42;;;;;;;;;;;;;;;15.62;73.35;98978.55;131255;1296;22565;-80
2023/10/29 14:28:42;;;;;;;;;;;;;;;15.53;73.69;98982.05;131608;1294;22538;-80
2023/10/29 14:31:43;;;;;;;;;;;;;;;15.44;73.84;98980.96;131222;1289;26190;-82
2023/10/29 14:34:43;;;;;;;;;;;;;;;15.38;74.15;98985.70;131592;1291;22594;-81
2023/10/29 14:37:44;;;;;;;;;;;;;;;15.31;74.50;98996.80;131332;1294;22687;-82
2023/10/29 14:40:45;;;;;;;;;;;;;;;15.25;74.70;98999.52;131490;1294;22545;-81
2023/10/29 14:43:45;;;;;;;;;;;;;;;15.19;74.94;98995.73;131469;1290;25344;-81
2023/10/29 14:46:46;;;;;;;;;;;;;;;15.12;75.28;98986.88;131294;1295;25213;-83
2023/10/29 14:49:49;;;;;;;;;;;;;;;15.03;75.46;98968.70;131367;1291;22629;-83
2023/10/29 14:52:50;;;;;;;;;;;;;;;14.95;75.78;98957.73;131317;1298;25310;-83
2023/10/29 14:55:50;;;;;;;;;;;;;;;14.86;75.99;98950.13;131305;1298;22578;-82
2023/10/29 14:58:51;;;;;;;;;;;;;;;14.78;76.28;98945.39;131355;1290;24268;-83
2023/10/29 15:01:55;;;;;;;;;;;;;;;14.69;76.31;98951.83;131586;1297;23443;-83
2023/10/29 15:04:55;;;;;;;;;;;;;;;14.63;75.71;98965.41;131604;1291;22612;-85
2023/10/29 15:07:56;;;;;;;;;;;;;;;14.59;75.55;98970.90;131273;1299;24322;-82
2023/10/29 15:10:57;;;;;;;;;;;;;;;14.56;75.62;98967.86;131528;1291;22737;-82
2023/10/29 15:13:59;;;;;;;;;;;;;;;14.51;75.76;98953.02;131861;1294;22628;-81
2023/10/29 15:16:59;;;;;;;;;;;;;;;14.44;75.83;98959.36;131317;1298;23299;-81
2023/10/29 15:20:01;;;;;;;;;;;;;;;14.39;75.87;98972.09;131454;1298;26567;-85
2023/10/29 15:23:02;;;;;;;;;;;;;;;14.35;75.89;98975.77;131342;1299;23503;-83
2023/10/29 15:26:03;;;;;;;;;;;;;;;14.32;76.00;98969.92;131340;1291;24306;-84
2023/10/29 15:29:04;;;;;;;;;;;;;;;14.27;76.10;98959.58;131408;1301;25261;-85
2023/10/29 15:32:07;;;;;;;;;;;;;;;14.23;76.50;98955.65;131526;1291;22581;-85